sensor_id;sensor_type;location;lat;lon;timestamp;temperature;humidity
53282;DHT22;39167;52.794;6.892;2022-08-16T00:02:01;22.10;99.90
53282;DHT22;39167;52.794;6.892;2022-08-16T00:04:27;22.10;99.90
53282;DHT22;39167;52.794;6.892;2022-08-16T00:06:54;22.10;99.90
53282;DHT22;39167;52.794;6.892;2022-08-16T00:09:20;22.10;99.90
53282;DHT22;39167;52.794;6.892;2022-08-16T00:11:47;22.10;99.90
53282;DHT22;39167;52.794;6.892;2022-08-16T00:14:16;22.00;99.90
53282;DHT22;39167;52.794;6.892;2022-08-16T00:16:42;22.00;99.90
53282;DHT22;39167;52.794;6.892;2022-08-16T00:19:08;22.00;99.90
53282;DHT22;39167;52.794;6.892;2022-08-16T00:21:34;22.10;99.90
53282;DHT22;39167;52.794;6.892;2022-08-16T00:24:00;22.00;99.90
53282;DHT22;39167;52.794;6.892;2022-08-16T00:26:26;22.00;99.90
53282;DHT22;39167;52.794;6.892;2022-08-16T00:28:52;22.00;99.90
53282;DHT22;39167;52.794;6.892;2022-08-16T00:31:18;22.00;99.90
53282;DHT22;39167;52.794;6.892;2022-08-16T00:33:43;22.00;99.90
53282;DHT22;39167;52.794;6.892;2022-08-16T00:36:09;22.00;99.90
53282;DHT22;39167;52.794;6.892;2022-08-16T00:38:35;22.00;99.90
53282;DHT22;39167;52.794;6.892;2022-08-16T00:41:00;21.90;99.90
53282;DHT22;39167;52.794;6.892;2022-08-16T00:43:32;21.90;99.90
53282;DHT22;39167;52.794;6.892;2022-08-16T00:46:35;21.90;99.90
53282;DHT22;39167;52.794;6.892;2022-08-16T00:49:08;22.00;99.90
53282;DHT22;39167;52.794;6.892;2022-08-16T00:51:34;21.90;99.90
53282;DHT22;39167;52.794;6.892;2022-08-16T00:53:59;21.90;99.90
53282;DHT22;39167;52.794;6.892;2022-08-16T00:56:31;21.90;99.90
53282;DHT22;39167;52.794;6.892;2022-08-16T00:58:58;21.90;99.90
53282;DHT22;39167;52.794;6.892;2022-08-16T01:01:26;21.90;99.90
53282;DHT22;39167;52.794;6.892;2022-08-16T01:03:53;21.90;99.90
53282;DHT22;39167;52.794;6.892;2022-08-16T01:06:20;21.80;99.90
53282;DHT22;39167;52.794;6.892;2022-08-16T01:08:48;21.80;99.90
53282;DHT22;39167;52.794;6.892;2022-08-16T01:11:15;21.80;99.90
53282;DHT22;39167;52.794;6.892;2022-08-16T01:13:42;21.80;99.90
53282;DHT22;39167;52.794;6.892;2022-08-16T01:16:26;21.80;99.90
53282;DHT22;39167;52.794;6.892;2022-08-16T01:18:58;21.70;99.90
53282;DHT22;39167;52.794;6.892;2022-08-16T01:24:36;21.70;99.90
53282;DHT22;39167;52.794;6.892;2022-08-16T01:27:19;21.60;99.90
53282;DHT22;39167;52.794;6.892;2022-08-16T01:29:55;21.70;99.90
53282;DHT22;39167;52.794;6.892;2022-08-16T01:32:21;21.60;99.90
53282;DHT22;39167;52.794;6.892;2022-08-16T01:34:47;21.60;99.90
53282;DHT22;39167;52.794;6.892;2022-08-16T01:37:14;21.60;99.90
53282;DHT22;39167;52.794;6.892;2022-08-16T01:39:41;21.60;99.90
53282;DHT22;39167;52.794;6.892;2022-08-16T01:42:08;21.60;99.90
53282;DHT22;39167;52.794;6.892;2022-08-16T01:44:35;21.60;99.90
53282;DHT22;39167;52.794;6.892;2022-08-16T01:47:02;21.50;99.90
53282;DHT22;39167;52.794;6.892;2022-08-16T01:49:31;21.60;99.90
53282;DHT22;39167;52.794;6.892;2022-08-16T01:52:11;21.50;99.90
53282;DHT22;39167;52.794;6.892;2022-08-16T01:54:37;21.50;99.90
53282;DHT22;39167;52.794;6.892;2022-08-16T01:57:04;21.50;99.90
53282;DHT22;39167;52.794;6.892;2022-08-16T01:59:31;21.50;99.90
53282;DHT22;39167;52.794;6.892;2022-08-16T02:01:57;21.50;99.90
53282;DHT22;39167;52.794;6.892;2022-08-16T02:04:24;21.50;99.90
53282;DHT22;39167;52.794;6.892;2022-08-16T02:06:50;21.60;99.90
53282;DHT22;39167;52.794;6.892;2022-08-16T02:09:18;21.60;99.90
53282;DHT22;39167;52.794;6.892;2022-08-16T02:11:46;21.60;99.90
53282;DHT22;39167;52.794;6.892;2022-08-16T02:14:12;21.60;99.90
53282;DHT22;39167;52.794;6.892;2022-08-16T02:16:38;21.60;99.90
53282;DHT22;39167;52.794;6.892;2022-08-16T02:19:05;21.60;99.90
53282;DHT22;39167;52.794;6.892;2022-08-16T02:21:30;21.50;99.90
53282;DHT22;39167;52.794;6.892;2022-08-16T02:23:56;21.50;99.90
53282;DHT22;39167;52.794;6.892;2022-08-16T02:26:22;21.50;99.90
53282;DHT22;39167;52.794;6.892;2022-08-16T02:28:48;21.50;99.90
53282;DHT22;39167;52.794;6.892;2022-08-16T02:31:14;21.40;99.90
53282;DHT22;39167;52.794;6.892;2022-08-16T02:33:41;21.40;99.90
53282;DHT22;39167;52.794;6.892;2022-08-16T02:36:08;21.30;99.90
53282;DHT22;39167;52.794;6.892;2022-08-16T02:38:34;21.30;99.90
53282;DHT22;39167;52.794;6.892;2022-08-16T02:41:01;21.30;99.90
53282;DHT22;39167;52.794;6.892;2022-08-16T02:43:30;21.30;99.90
53282;DHT22;39167;52.794;6.892;2022-08-16T02:45:57;21.30;99.90
53282;DHT22;39167;52.794;6.892;2022-08-16T02:48:24;21.20;99.90
53282;DHT22;39167;52.794;6.892;2022-08-16T02:50:51;21.20;99.90
53282;DHT22;39167;52.794;6.892;2022-08-16T02:53:17;21.20;99.90
53282;DHT22;39167;52.794;6.892;2022-08-16T02:55:43;21.10;99.90
53282;DHT22;39167;52.794;6.892;2022-08-16T02:58:09;21.10;99.90
53282;DHT22;39167;52.794;6.892;2022-08-16T03:00:36;21.10;99.90
53282;DHT22;39167;52.794;6.892;2022-08-16T03:03:03;21.10;99.90
53282;DHT22;39167;52.794;6.892;2022-08-16T03:05:29;21.10;99.90
53282;DHT22;39167;52.794;6.892;2022-08-16T03:07:55;21.10;99.90
53282;DHT22;39167;52.794;6.892;2022-08-16T03:10:21;21.10;99.90
53282;DHT22;39167;52.794;6.892;2022-08-16T03:12:47;21.10;99.90
53282;DHT22;39167;52.794;6.892;2022-08-16T03:15:15;21.10;99.90
53282;DHT22;39167;52.794;6.892;2022-08-16T03:17:42;21.10;99.90
53282;DHT22;39167;52.794;6.892;2022-08-16T03:20:10;21.10;99.90
53282;DHT22;39167;52.794;6.892;2022-08-16T03:22:36;21.00;99.90
53282;DHT22;39167;52.794;6.892;2022-08-16T03:25:05;21.10;99.90
53282;DHT22;39167;52.794;6.892;2022-08-16T03:27:31;21.10;99.90
53282;DHT22;39167;52.794;6.892;2022-08-16T03:30:00;21.10;99.90
53282;DHT22;39167;52.794;6.892;2022-08-16T03:32:26;21.20;99.90
53282;DHT22;39167;52.794;6.892;2022-08-16T03:34:52;21.20;99.90
53282;DHT22;39167;52.794;6.892;2022-08-16T03:37:18;21.10;99.90
53282;DHT22;39167;52.794;6.892;2022-08-16T03:39:44;21.10;99.90
53282;DHT22;39167;52.794;6.892;2022-08-16T03:42:10;21.10;99.90
53282;DHT22;39167;52.794;6.892;2022-08-16T03:44:36;21.10;99.90
53282;DHT22;39167;52.794;6.892;2022-08-16T03:47:02;21.00;99.90
53282;DHT22;39167;52.794;6.892;2022-08-16T03:49:27;21.00;99.90
53282;DHT22;39167;52.794;6.892;2022-08-16T03:51:53;20.90;99.90
53282;DHT22;39167;52.794;6.892;2022-08-16T03:54:19;20.90;99.90
53282;DHT22;39167;52.794;6.892;2022-08-16T03:56:44;20.90;99.90
53282;DHT22;39167;52.794;6.892;2022-08-16T03:59:10;20.90;99.90
53282;DHT22;39167;52.794;6.892;2022-08-16T04:01:36;20.90;99.90
53282;DHT22;39167;52.794;6.892;2022-08-16T04:04:02;20.90;99.90
53282;DHT22;39167;52.794;6.892;2022-08-16T04:06:27;20.80;99.90
53282;DHT22;39167;52.794;6.892;2022-08-16T04:08:53;20.80;99.90
53282;DHT22;39167;52.794;6.892;2022-08-16T04:11:19;20.80;99.90
53282;DHT22;39167;52.794;6.892;2022-08-16T04:13:45;20.80;99.90
53282;DHT22;39167;52.794;6.892;2022-08-16T04:16:12;20.80;99.90
53282;DHT22;39167;52.794;6.892;2022-08-16T04:18:38;20.80;99.90
53282;DHT22;39167;52.794;6.892;2022-08-16T04:21:07;20.80;99.90
53282;DHT22;39167;52.794;6.892;2022-08-16T04:23:32;20.80;99.90
53282;DHT22;39167;52.794;6.892;2022-08-16T04:25:58;20.80;99.90
53282;DHT22;39167;52.794;6.892;2022-08-16T04:28:24;20.80;99.90
53282;DHT22;39167;52.794;6.892;2022-08-16T04:30:51;20.80;99.90
53282;DHT22;39167;52.794;6.892;2022-08-16T04:33:17;20.80;99.90
53282;DHT22;39167;52.794;6.892;2022-08-16T04:35:42;20.80;99.90
53282;DHT22;39167;52.794;6.892;2022-08-16T04:38:08;20.80;99.90
53282;DHT22;39167;52.794;6.892;2022-08-16T04:40:34;20.70;99.90
53282;DHT22;39167;52.794;6.892;2022-08-16T04:42:59;20.70;99.90
53282;DHT22;39167;52.794;6.892;2022-08-16T04:45:26;20.60;99.90
53282;DHT22;39167;52.794;6.892;2022-08-16T04:47:52;20.60;99.90
53282;DHT22;39167;52.794;6.892;2022-08-16T04:50:20;20.60;99.90
53282;DHT22;39167;52.794;6.892;2022-08-16T04:52:48;20.50;99.90
53282;DHT22;39167;52.794;6.892;2022-08-16T04:55:17;20.50;99.90
53282;DHT22;39167;52.794;6.892;2022-08-16T04:57:44;20.50;99.90
53282;DHT22;39167;52.794;6.892;2022-08-16T05:00:14;20.50;99.90
53282;DHT22;39167;52.794;6.892;2022-08-16T05:02:41;20.50;99.90
53282;DHT22;39167;52.794;6.892;2022-08-16T05:05:08;20.50;99.90
53282;DHT22;39167;52.794;6.892;2022-08-16T05:07:34;20.50;99.90
53282;DHT22;39167;52.794;6.892;2022-08-16T05:10:02;20.60;99.90
53282;DHT22;39167;52.794;6.892;2022-08-16T05:12:28;20.60;99.90
53282;DHT22;39167;52.794;6.892;2022-08-16T05:14:54;20.60;99.90
53282;DHT22;39167;52.794;6.892;2022-08-16T05:17:19;20.60;99.90
53282;DHT22;39167;52.794;6.892;2022-08-16T05:19:45;20.70;99.90
53282;DHT22;39167;52.794;6.892;2022-08-16T05:22:11;20.60;99.90
53282;DHT22;39167;52.794;6.892;2022-08-16T05:24:37;20.60;99.90
53282;DHT22;39167;52.794;6.892;2022-08-16T05:27:03;20.60;99.90
53282;DHT22;39167;52.794;6.892;2022-08-16T05:29:29;20.60;99.90
53282;DHT22;39167;52.794;6.892;2022-08-16T05:31:55;20.50;99.90
53282;DHT22;39167;52.794;6.892;2022-08-16T05:34:20;20.60;99.90
53282;DHT22;39167;52.794;6.892;2022-08-16T05:36:47;20.50;99.90
53282;DHT22;39167;52.794;6.892;2022-08-16T05:39:18;20.50;99.90
53282;DHT22;39167;52.794;6.892;2022-08-16T05:41:44;20.50;99.90
53282;DHT22;39167;52.794;6.892;2022-08-16T05:44:09;20.50;99.90
53282;DHT22;39167;52.794;6.892;2022-08-16T05:46:35;20.50;99.90
53282;DHT22;39167;52.794;6.892;2022-08-16T05:49:01;20.60;99.90
53282;DHT22;39167;52.794;6.892;2022-08-16T05:51:27;20.60;99.90
53282;DHT22;39167;52.794;6.892;2022-08-16T05:53:52;20.60;99.90
53282;DHT22;39167;52.794;6.892;2022-08-16T05:56:18;20.60;99.90
53282;DHT22;39167;52.794;6.892;2022-08-16T05:58:44;20.60;99.90
53282;DHT22;39167;52.794;6.892;2022-08-16T06:01:10;20.70;99.90
53282;DHT22;39167;52.794;6.892;2022-08-16T06:03:35;20.70;99.90
53282;DHT22;39167;52.794;6.892;2022-08-16T06:06:02;20.70;99.90
53282;DHT22;39167;52.794;6.892;2022-08-16T06:08:28;20.70;99.90
53282;DHT22;39167;52.794;6.892;2022-08-16T06:10:54;20.80;99.90
53282;DHT22;39167;52.794;6.892;2022-08-16T06:13:20;20.80;99.90
53282;DHT22;39167;52.794;6.892;2022-08-16T06:15:45;20.80;99.90
53282;DHT22;39167;52.794;6.892;2022-08-16T06:18:11;20.80;99.90
53282;DHT22;39167;52.794;6.892;2022-08-16T06:20:37;20.80;99.90
53282;DHT22;39167;52.794;6.892;2022-08-16T06:23:03;20.90;99.90
53282;DHT22;39167;52.794;6.892;2022-08-16T06:25:31;21.00;99.90
53282;DHT22;39167;52.794;6.892;2022-08-16T06:27:57;21.00;99.90
53282;DHT22;39167;52.794;6.892;2022-08-16T06:30:22;21.10;99.90
53282;DHT22;39167;52.794;6.892;2022-08-16T06:32:48;21.20;99.90
53282;DHT22;39167;52.794;6.892;2022-08-16T06:35:14;21.30;99.90
53282;DHT22;39167;52.794;6.892;2022-08-16T06:37:41;21.40;99.90
53282;DHT22;39167;52.794;6.892;2022-08-16T06:40:08;21.40;99.90
53282;DHT22;39167;52.794;6.892;2022-08-16T06:42:35;21.50;99.90
53282;DHT22;39167;52.794;6.892;2022-08-16T06:45:01;21.60;99.90
53282;DHT22;39167;52.794;6.892;2022-08-16T06:47:27;21.60;99.90
53282;DHT22;39167;52.794;6.892;2022-08-16T06:49:52;21.70;99.90
53282;DHT22;39167;52.794;6.892;2022-08-16T06:52:18;21.70;99.90
53282;DHT22;39167;52.794;6.892;2022-08-16T06:54:44;21.70;99.90
53282;DHT22;39167;52.794;6.892;2022-08-16T06:57:09;21.70;99.90
53282;DHT22;39167;52.794;6.892;2022-08-16T06:59:38;21.70;99.90
53282;DHT22;39167;52.794;6.892;2022-08-16T07:02:04;21.70;99.90
53282;DHT22;39167;52.794;6.892;2022-08-16T07:04:30;21.80;99.90
53282;DHT22;39167;52.794;6.892;2022-08-16T07:06:56;21.80;99.90
53282;DHT22;39167;52.794;6.892;2022-08-16T07:09:22;21.80;99.90
53282;DHT22;39167;52.794;6.892;2022-08-16T07:11:47;21.90;99.90
53282;DHT22;39167;52.794;6.892;2022-08-16T07:14:14;21.90;99.90
53282;DHT22;39167;52.794;6.892;2022-08-16T07:16:39;21.90;99.90
53282;DHT22;39167;52.794;6.892;2022-08-16T07:19:07;22.00;99.90
53282;DHT22;39167;52.794;6.892;2022-08-16T07:21:33;22.10;99.90
53282;DHT22;39167;52.794;6.892;2022-08-16T07:24:02;22.10;99.90
53282;DHT22;39167;52.794;6.892;2022-08-16T07:26:29;22.20;99.90
53282;DHT22;39167;52.794;6.892;2022-08-16T07:28:55;22.20;99.90
53282;DHT22;39167;52.794;6.892;2022-08-16T07:31:20;22.30;99.90
53282;DHT22;39167;52.794;6.892;2022-08-16T07:33:46;22.30;99.90
53282;DHT22;39167;52.794;6.892;2022-08-16T07:36:13;22.30;99.90
53282;DHT22;39167;52.794;6.892;2022-08-16T07:38:40;22.30;99.90
53282;DHT22;39167;52.794;6.892;2022-08-16T07:41:06;22.30;99.90
53282;DHT22;39167;52.794;6.892;2022-08-16T07:43:32;22.40;99.90
53282;DHT22;39167;52.794;6.892;2022-08-16T07:45:58;22.40;99.90
53282;DHT22;39167;52.794;6.892;2022-08-16T07:48:25;22.50;99.90
53282;DHT22;39167;52.794;6.892;2022-08-16T07:50:51;22.50;99.90
53282;DHT22;39167;52.794;6.892;2022-08-16T07:53:18;22.60;99.90
53282;DHT22;39167;52.794;6.892;2022-08-16T07:55:43;22.70;99.90
53282;DHT22;39167;52.794;6.892;2022-08-16T07:58:09;22.70;99.90
53282;DHT22;39167;52.794;6.892;2022-08-16T08:00:36;22.80;99.90
53282;DHT22;39167;52.794;6.892;2022-08-16T08:03:03;22.80;99.90
53282;DHT22;39167;52.794;6.892;2022-08-16T08:05:29;22.90;99.90
53282;DHT22;39167;52.794;6.892;2022-08-16T08:07:55;23.00;99.90
53282;DHT22;39167;52.794;6.892;2022-08-16T08:10:22;23.00;99.90
53282;DHT22;39167;52.794;6.892;2022-08-16T08:12:50;23.10;99.90
53282;DHT22;39167;52.794;6.892;2022-08-16T08:15:18;23.10;99.90
53282;DHT22;39167;52.794;6.892;2022-08-16T08:17:44;23.20;99.90
53282;DHT22;39167;52.794;6.892;2022-08-16T08:20:13;23.30;99.90
53282;DHT22;39167;52.794;6.892;2022-08-16T08:22:39;23.40;99.90
53282;DHT22;39167;52.794;6.892;2022-08-16T08:25:06;23.40;99.90
53282;DHT22;39167;52.794;6.892;2022-08-16T08:27:32;23.50;99.90
53282;DHT22;39167;52.794;6.892;2022-08-16T08:29:58;23.60;99.90
53282;DHT22;39167;52.794;6.892;2022-08-16T08:32:24;23.60;99.90
53282;DHT22;39167;52.794;6.892;2022-08-16T08:34:53;23.70;99.90
53282;DHT22;39167;52.794;6.892;2022-08-16T08:37:19;23.80;99.90
53282;DHT22;39167;52.794;6.892;2022-08-16T08:39:45;23.80;99.90
53282;DHT22;39167;52.794;6.892;2022-08-16T08:42:12;23.90;99.90
53282;DHT22;39167;52.794;6.892;2022-08-16T08:44:40;24.00;99.90
53282;DHT22;39167;52.794;6.892;2022-08-16T08:47:06;24.10;99.90
53282;DHT22;39167;52.794;6.892;2022-08-16T08:49:33;24.10;99.90
53282;DHT22;39167;52.794;6.892;2022-08-16T08:51:59;24.20;99.90
53282;DHT22;39167;52.794;6.892;2022-08-16T08:54:24;24.30;99.90
53282;DHT22;39167;52.794;6.892;2022-08-16T08:56:53;24.30;99.90
53282;DHT22;39167;52.794;6.892;2022-08-16T08:59:19;24.40;99.90
53282;DHT22;39167;52.794;6.892;2022-08-16T09:01:46;24.50;99.90
53282;DHT22;39167;52.794;6.892;2022-08-16T09:04:12;24.60;99.90
53282;DHT22;39167;52.794;6.892;2022-08-16T09:06:39;24.70;99.90
53282;DHT22;39167;52.794;6.892;2022-08-16T09:09:06;24.80;99.90
53282;DHT22;39167;52.794;6.892;2022-08-16T09:11:34;24.90;99.90
53282;DHT22;39167;52.794;6.892;2022-08-16T09:14:01;25.00;99.90
53282;DHT22;39167;52.794;6.892;2022-08-16T09:16:27;25.10;99.90
53282;DHT22;39167;52.794;6.892;2022-08-16T09:18:53;25.10;99.90
53282;DHT22;39167;52.794;6.892;2022-08-16T09:21:20;25.20;99.90
53282;DHT22;39167;52.794;6.892;2022-08-16T09:23:46;25.30;99.90
53282;DHT22;39167;52.794;6.892;2022-08-16T09:26:12;25.40;99.90
53282;DHT22;39167;52.794;6.892;2022-08-16T09:28:41;25.50;99.90
53282;DHT22;39167;52.794;6.892;2022-08-16T09:31:08;25.60;99.90
53282;DHT22;39167;52.794;6.892;2022-08-16T09:33:34;25.70;99.90
53282;DHT22;39167;52.794;6.892;2022-08-16T09:35:59;25.80;99.90
53282;DHT22;39167;52.794;6.892;2022-08-16T09:38:25;25.90;99.90
53282;DHT22;39167;52.794;6.892;2022-08-16T09:40:51;25.90;99.90
53282;DHT22;39167;52.794;6.892;2022-08-16T09:43:18;26.00;99.90
53282;DHT22;39167;52.794;6.892;2022-08-16T09:45:45;26.10;99.90
53282;DHT22;39167;52.794;6.892;2022-08-16T09:48:12;26.20;99.90
53282;DHT22;39167;52.794;6.892;2022-08-16T09:50:40;26.30;99.90
53282;DHT22;39167;52.794;6.892;2022-08-16T09:53:18;26.40;99.90
53282;DHT22;39167;52.794;6.892;2022-08-16T09:55:50;26.40;99.90
53282;DHT22;39167;52.794;6.892;2022-08-16T09:58:21;26.50;99.90
53282;DHT22;39167;52.794;6.892;2022-08-16T10:00:48;26.60;99.90
53282;DHT22;39167;52.794;6.892;2022-08-16T10:03:16;26.60;99.90
53282;DHT22;39167;52.794;6.892;2022-08-16T10:05:42;26.60;99.90
53282;DHT22;39167;52.794;6.892;2022-08-16T10:08:08;26.70;99.90
53282;DHT22;39167;52.794;6.892;2022-08-16T10:10:34;26.80;99.90
53282;DHT22;39167;52.794;6.892;2022-08-16T10:13:01;26.90;99.90
53282;DHT22;39167;52.794;6.892;2022-08-16T10:15:46;27.00;99.90
53282;DHT22;39167;52.794;6.892;2022-08-16T10:18:13;27.10;99.90
53282;DHT22;39167;52.794;6.892;2022-08-16T10:20:43;27.10;99.90
53282;DHT22;39167;52.794;6.892;2022-08-16T10:23:11;27.20;99.90
53282;DHT22;39167;52.794;6.892;2022-08-16T10:25:43;27.30;99.90
53282;DHT22;39167;52.794;6.892;2022-08-16T10:28:10;27.30;99.90
53282;DHT22;39167;52.794;6.892;2022-08-16T10:30:37;27.50;99.90
53282;DHT22;39167;52.794;6.892;2022-08-16T10:33:03;27.50;99.90
53282;DHT22;39167;52.794;6.892;2022-08-16T10:35:29;27.60;99.90
53282;DHT22;39167;52.794;6.892;2022-08-16T10:37:55;27.70;99.90
53282;DHT22;39167;52.794;6.892;2022-08-16T10:40:23;27.70;99.90
53282;DHT22;39167;52.794;6.892;2022-08-16T10:42:49;27.70;99.90
53282;DHT22;39167;52.794;6.892;2022-08-16T10:45:16;27.80;99.90
53282;DHT22;39167;52.794;6.892;2022-08-16T10:47:42;27.80;99.90
53282;DHT22;39167;52.794;6.892;2022-08-16T10:50:08;27.90;99.90
53282;DHT22;39167;52.794;6.892;2022-08-16T10:52:34;27.90;99.90
53282;DHT22;39167;52.794;6.892;2022-08-16T10:55:00;28.00;99.90
53282;DHT22;39167;52.794;6.892;2022-08-16T10:57:27;28.00;99.90
53282;DHT22;39167;52.794;6.892;2022-08-16T10:59:54;28.10;99.90
53282;DHT22;39167;52.794;6.892;2022-08-16T11:02:20;28.20;99.90
53282;DHT22;39167;52.794;6.892;2022-08-16T11:04:47;28.30;99.90
53282;DHT22;39167;52.794;6.892;2022-08-16T11:07:13;28.40;99.90
53282;DHT22;39167;52.794;6.892;2022-08-16T11:09:39;28.40;99.50
53282;DHT22;39167;52.794;6.892;2022-08-16T11:12:05;28.40;99.20
53282;DHT22;39167;52.794;6.892;2022-08-16T11:14:33;28.40;99.00
53282;DHT22;39167;52.794;6.892;2022-08-16T11:17:03;28.50;98.80
53282;DHT22;39167;52.794;6.892;2022-08-16T11:19:30;28.60;99.00
53282;DHT22;39167;52.794;6.892;2022-08-16T11:21:56;28.60;99.10
53282;DHT22;39167;52.794;6.892;2022-08-16T11:24:21;28.60;98.90
53282;DHT22;39167;52.794;6.892;2022-08-16T11:26:47;28.60;98.50
53282;DHT22;39167;52.794;6.892;2022-08-16T11:29:15;28.60;98.10
53282;DHT22;39167;52.794;6.892;2022-08-16T11:31:41;28.60;98.00
53282;DHT22;39167;52.794;6.892;2022-08-16T11:34:07;28.70;97.70
53282;DHT22;39167;52.794;6.892;2022-08-16T11:36:33;28.80;97.50
53282;DHT22;39167;52.794;6.892;2022-08-16T11:38:58;28.90;97.30
53282;DHT22;39167;52.794;6.892;2022-08-16T11:41:27;28.70;97.00
53282;DHT22;39167;52.794;6.892;2022-08-16T11:43:53;28.80;97.00
53282;DHT22;39167;52.794;6.892;2022-08-16T11:46:19;28.80;97.10
53282;DHT22;39167;52.794;6.892;2022-08-16T11:48:45;28.80;97.20
53282;DHT22;39167;52.794;6.892;2022-08-16T11:51:11;28.70;97.00
53282;DHT22;39167;52.794;6.892;2022-08-16T11:53:37;28.70;97.10
53282;DHT22;39167;52.794;6.892;2022-08-16T11:56:03;28.50;96.80
53282;DHT22;39167;52.794;6.892;2022-08-16T11:58:30;28.40;96.70
53282;DHT22;39167;52.794;6.892;2022-08-16T12:00:58;28.40;96.70
53282;DHT22;39167;52.794;6.892;2022-08-16T12:03:29;28.40;96.90
53282;DHT22;39167;52.794;6.892;2022-08-16T12:06:00;28.40;96.30
53282;DHT22;39167;52.794;6.892;2022-08-16T12:08:28;28.50;96.00
53282;DHT22;39167;52.794;6.892;2022-08-16T12:10:54;28.60;95.70
53282;DHT22;39167;52.794;6.892;2022-08-16T12:13:19;28.70;95.80
53282;DHT22;39167;52.794;6.892;2022-08-16T12:15:45;28.80;95.70
53282;DHT22;39167;52.794;6.892;2022-08-16T12:18:11;29.00;95.40
53282;DHT22;39167;52.794;6.892;2022-08-16T12:20:41;29.10;94.70
53282;DHT22;39167;52.794;6.892;2022-08-16T12:23:08;29.20;94.50
53282;DHT22;39167;52.794;6.892;2022-08-16T12:25:34;29.20;94.40
53282;DHT22;39167;52.794;6.892;2022-08-16T12:28:02;29.30;94.00
53282;DHT22;39167;52.794;6.892;2022-08-16T12:30:32;29.40;93.60
53282;DHT22;39167;52.794;6.892;2022-08-16T12:33:00;29.50;93.40
53282;DHT22;39167;52.794;6.892;2022-08-16T12:35:27;29.60;93.30
53282;DHT22;39167;52.794;6.892;2022-08-16T12:37:56;29.60;92.80
53282;DHT22;39167;52.794;6.892;2022-08-16T12:40:26;29.60;92.30
53282;DHT22;39167;52.794;6.892;2022-08-16T12:42:54;29.70;92.30
53282;DHT22;39167;52.794;6.892;2022-08-16T12:45:22;29.70;92.00
53282;DHT22;39167;52.794;6.892;2022-08-16T12:47:49;29.70;92.00
53282;DHT22;39167;52.794;6.892;2022-08-16T12:50:34;29.70;92.00
53282;DHT22;39167;52.794;6.892;2022-08-16T12:52:59;29.80;91.70
53282;DHT22;39167;52.794;6.892;2022-08-16T12:55:25;29.80;91.50
53282;DHT22;39167;52.794;6.892;2022-08-16T12:57:55;29.80;91.30
53282;DHT22;39167;52.794;6.892;2022-08-16T13:00:22;29.70;91.00
53282;DHT22;39167;52.794;6.892;2022-08-16T13:02:48;29.60;91.10
53282;DHT22;39167;52.794;6.892;2022-08-16T13:05:15;29.50;91.00
53282;DHT22;39167;52.794;6.892;2022-08-16T13:07:42;29.40;90.90
53282;DHT22;39167;52.794;6.892;2022-08-16T13:10:10;29.40;90.80
53282;DHT22;39167;52.794;6.892;2022-08-16T13:12:45;29.30;91.00
53282;DHT22;39167;52.794;6.892;2022-08-16T13:15:15;29.30;90.90
53282;DHT22;39167;52.794;6.892;2022-08-16T13:17:41;29.30;90.60
53282;DHT22;39167;52.794;6.892;2022-08-16T13:20:11;29.40;90.60
53282;DHT22;39167;52.794;6.892;2022-08-16T13:22:44;29.60;90.60
53282;DHT22;39167;52.794;6.892;2022-08-16T13:25:15;29.70;90.70
53282;DHT22;39167;52.794;6.892;2022-08-16T13:27:41;29.90;90.70
53282;DHT22;39167;52.794;6.892;2022-08-16T13:30:08;30.00;90.30
53282;DHT22;39167;52.794;6.892;2022-08-16T13:32:34;30.00;89.40
53282;DHT22;39167;52.794;6.892;2022-08-16T13:35:00;30.10;88.80
53282;DHT22;39167;52.794;6.892;2022-08-16T13:37:26;30.20;87.80
53282;DHT22;39167;52.794;6.892;2022-08-16T13:39:51;30.30;87.80
53282;DHT22;39167;52.794;6.892;2022-08-16T13:42:17;30.30;87.30
53282;DHT22;39167;52.794;6.892;2022-08-16T13:44:45;30.30;87.10
53282;DHT22;39167;52.794;6.892;2022-08-16T13:47:11;30.40;87.70
53282;DHT22;39167;52.794;6.892;2022-08-16T13:49:37;30.40;88.00
53282;DHT22;39167;52.794;6.892;2022-08-16T13:52:03;30.40;87.90
53282;DHT22;39167;52.794;6.892;2022-08-16T13:54:29;30.40;88.20
53282;DHT22;39167;52.794;6.892;2022-08-16T13:56:55;30.40;88.30
53282;DHT22;39167;52.794;6.892;2022-08-16T13:59:20;30.30;88.50
53282;DHT22;39167;52.794;6.892;2022-08-16T14:01:50;30.20;89.20
53282;DHT22;39167;52.794;6.892;2022-08-16T14:04:16;30.10;89.70
53282;DHT22;39167;52.794;6.892;2022-08-16T14:06:42;30.00;89.80
53282;DHT22;39167;52.794;6.892;2022-08-16T14:09:07;30.00;90.00
53282;DHT22;39167;52.794;6.892;2022-08-16T14:11:34;30.00;90.00
53282;DHT22;39167;52.794;6.892;2022-08-16T14:14:00;30.00;89.40
53282;DHT22;39167;52.794;6.892;2022-08-16T14:16:26;29.90;89.20
53282;DHT22;39167;52.794;6.892;2022-08-16T14:18:52;29.90;89.10
53282;DHT22;39167;52.794;6.892;2022-08-16T14:21:18;29.80;89.00
53282;DHT22;39167;52.794;6.892;2022-08-16T14:23:43;29.80;89.00
53282;DHT22;39167;52.794;6.892;2022-08-16T14:26:09;29.60;88.70
53282;DHT22;39167;52.794;6.892;2022-08-16T14:28:35;29.60;88.60
53282;DHT22;39167;52.794;6.892;2022-08-16T14:31:00;29.60;88.50
53282;DHT22;39167;52.794;6.892;2022-08-16T14:33:26;29.50;88.90
53282;DHT22;39167;52.794;6.892;2022-08-16T14:35:52;29.50;89.10
53282;DHT22;39167;52.794;6.892;2022-08-16T14:38:18;29.40;88.70
53282;DHT22;39167;52.794;6.892;2022-08-16T14:40:47;29.40;89.20
53282;DHT22;39167;52.794;6.892;2022-08-16T14:43:13;29.40;89.00
53282;DHT22;39167;52.794;6.892;2022-08-16T14:45:38;29.40;88.70
53282;DHT22;39167;52.794;6.892;2022-08-16T14:48:04;29.40;88.40
53282;DHT22;39167;52.794;6.892;2022-08-16T14:50:30;29.40;88.90
53282;DHT22;39167;52.794;6.892;2022-08-16T14:53:02;29.40;88.80
53282;DHT22;39167;52.794;6.892;2022-08-16T14:55:30;29.30;89.20
53282;DHT22;39167;52.794;6.892;2022-08-16T14:57:56;29.30;89.50
53282;DHT22;39167;52.794;6.892;2022-08-16T15:00:25;29.20;90.00
53282;DHT22;39167;52.794;6.892;2022-08-16T15:02:52;29.20;90.10
53282;DHT22;39167;52.794;6.892;2022-08-16T15:05:20;29.10;89.60
53282;DHT22;39167;52.794;6.892;2022-08-16T15:07:46;29.10;89.90
53282;DHT22;39167;52.794;6.892;2022-08-16T15:10:12;29.10;90.10
53282;DHT22;39167;52.794;6.892;2022-08-16T15:12:37;29.10;90.00
53282;DHT22;39167;52.794;6.892;2022-08-16T15:15:08;29.10;90.00
53282;DHT22;39167;52.794;6.892;2022-08-16T15:17:34;29.00;90.00
53282;DHT22;39167;52.794;6.892;2022-08-16T15:20:00;29.00;90.20
53282;DHT22;39167;52.794;6.892;2022-08-16T15:22:30;29.10;90.30
53282;DHT22;39167;52.794;6.892;2022-08-16T15:25:01;29.20;90.60
53282;DHT22;39167;52.794;6.892;2022-08-16T15:27:29;29.00;90.60
53282;DHT22;39167;52.794;6.892;2022-08-16T15:29:55;29.00;90.60
53282;DHT22;39167;52.794;6.892;2022-08-16T15:32:22;29.00;90.70